עמוד ראשי
METAR-TAF:

METAR-TAF

שדות תעופה :

Tanana, אלסקה, ארצות הברית

קו רוחב: 65-10N, קו אורך: 152-06W, גובה: 69מטר

תצפית מזג אוויר נוכחית

הדו"ח נערך לפני 43דקות, בשעה 11:52 UTC
טמפרטורת
לחץ 1012 hPa

METAR: PATA 221152Z AUTO A2987 RMK AO2 SLPNO 7//// 53007 PWINO FZRANO TSNO $

זמן: 04:35 (12:35 UTC)

תחזית

הדו"ח נערך לפני 24דקות, בשעה 12:11 UTC
תחזית בתוקף מ 22 ב 12 UTC עד 23 ב 12 UTC
רוח 3קשר מכיוון צפון/צפון-מזרח
ראות: 10קילומטר
מעט עננים בגובה 6000רגל
מ 22 ב 1800UTC
רוח 8קשר מכיוון צפון/צפון-מזרח
ראות: 10קילומטר
עננים פזורים בגובה 6000רגל

TAF: PATA 221211Z 2212/2312 03003KT P6SM FEW060 FM221800 03008KT P6SM SCT060

תצפיות ותחזיות מזג אוויר לגבי יותר מ- 4,000 שדות תעופה ברחבי העולם. דוחות METAR ו- TAF.

התחנות הזמינות מסומנות בנקודות צהובות ואדומות על גבי המפה.

העבר את העכבר לנקודה הצבעונית על מנת לראות את שם התחנה.

לאחר מכן, לחץ כדי לראות את תוכן ואת תחזיות מזג האוויר.

כדי לשנות את המפה: לחץ על הכפתורים הירוקים עם הפלוס השחור כדי להתקרב; על הכפתור הירוק עם המקף כדי להתרחק; או בחיצים הירוקים למפות סמוכות.


METAR-TAF: